createdAt,value
2023-02-09T00:02:29.532Z,5.87
2023-02-09T00:07:21.642Z,6.43
2023-02-09T00:12:32.117Z,5.40
2023-02-09T00:17:25.052Z,6.27
2023-02-09T00:22:16.818Z,6.40
2023-02-09T00:27:08.737Z,6.70
2023-02-09T00:32:00.520Z,6.50
2023-02-09T00:36:52.295Z,6.03
2023-02-09T00:42:02.574Z,6.13
2023-02-09T00:46:54.441Z,5.90
2023-02-09T00:51:46.702Z,6.20
2023-02-09T00:56:38.587Z,5.90
2023-02-09T01:01:31.336Z,6.13
2023-02-09T01:06:23.115Z,6.20
2023-02-09T01:11:15.796Z,6.23
2023-02-09T01:16:09.220Z,6.60
2023-02-09T01:21:01.316Z,6.37
2023-02-09T01:26:07.689Z,5.87
2023-02-09T01:30:59.555Z,6.43
2023-02-09T01:35:51.410Z,6.83
2023-02-09T01:40:48.011Z,7.00
2023-02-09T01:45:51.040Z,6.17
2023-02-09T01:50:46.653Z,6.30
2023-02-09T01:55:48.518Z,7.00
2023-02-09T02:00:40.486Z,6.77
2023-02-09T02:05:36.718Z,6.20
2023-02-09T02:10:29.189Z,6.93
2023-02-09T02:15:25.427Z,6.63
2023-02-09T02:20:29.314Z,6.87
2023-02-09T02:25:40.161Z,6.90
2023-02-09T02:30:58.350Z,6.80
2023-02-09T02:36:17.674Z,6.77
2023-02-09T02:42:15.612Z,7.00
2023-02-09T02:47:11.390Z,7.20
2023-02-09T02:52:08.092Z,7.30
2023-02-09T02:57:04.707Z,7.03
2023-02-09T03:02:02.099Z,7.80
2023-02-09T03:06:53.889Z,7.47
2023-02-09T03:11:49.437Z,6.83
2023-02-09T03:22:25.089Z,7.07
2023-02-09T03:27:19.424Z,7.33
2023-02-09T03:32:11.707Z,7.37
2023-02-09T03:37:03.558Z,7.60
2023-02-09T03:41:55.311Z,8.17
2023-02-09T03:46:47.086Z,7.60
2023-02-09T03:51:38.788Z,7.40
2023-02-09T03:56:30.402Z,8.07
2023-02-09T04:01:22.115Z,7.60
2023-02-09T04:06:13.808Z,7.63
2023-02-09T04:11:05.550Z,8.10
2023-02-09T04:15:57.258Z,8.07
2023-02-09T04:20:49.297Z,8.47
2023-02-09T04:25:41.045Z,7.77
2023-02-09T04:30:32.756Z,7.67
2023-02-09T04:35:26.623Z,8.20
2023-02-09T04:40:18.418Z,8.23
2023-02-09T04:45:10.095Z,7.47
2023-02-09T04:50:02.007Z,7.27
2023-02-09T04:54:53.802Z,8.93
2023-02-09T04:59:45.764Z,8.53
2023-02-09T05:04:37.476Z,8.10
2023-02-09T05:09:29.416Z,8.30
2023-02-09T05:14:21.278Z,8.70
2023-02-09T05:19:13.108Z,8.70
2023-02-09T05:24:05.144Z,9.03
2023-02-09T05:28:56.949Z,9.30
2023-02-09T05:33:48.672Z,8.57
2023-02-09T05:38:40.899Z,8.23
2023-02-09T05:43:32.604Z,7.53
2023-02-09T05:48:25.180Z,9.07
2023-02-09T05:53:17.051Z,9.33
2023-02-09T05:58:08.836Z,8.90
2023-02-09T06:03:00.445Z,8.10
2023-02-09T06:07:52.531Z,7.97
2023-02-09T06:12:44.654Z,9.10
2023-02-09T06:17:36.931Z,8.97
2023-02-09T06:22:29.984Z,9.70
2023-02-09T06:27:21.742Z,9.00
2023-02-09T06:32:13.513Z,9.83
2023-02-09T06:37:05.246Z,10.17
2023-02-09T06:41:57.128Z,9.03
2023-02-09T06:46:49.010Z,9.07
2023-02-09T06:51:40.832Z,9.57
2023-02-09T06:56:32.906Z,9.57
2023-02-09T07:01:24.669Z,10.23
2023-02-09T07:06:18.929Z,10.47
2023-02-09T07:11:14.159Z,10.20
2023-02-09T07:16:08.419Z,10.23
2023-02-09T07:21:08.730Z,10.03
2023-02-09T07:26:05.980Z,9.33
2023-02-09T07:31:02.870Z,10.23
2023-02-09T07:35:54.958Z,10.47
2023-02-09T07:40:47.051Z,10.50
2023-02-09T07:45:39.751Z,10.63
2023-02-09T07:50:32.008Z,11.00
2023-02-09T07:55:24.353Z,10.87
2023-02-09T08:00:17.549Z,10.37
2023-02-09T08:05:14.548Z,11.30
2023-02-09T08:10:06.539Z,11.60
2023-02-09T08:14:58.310Z,11.63
2023-02-09T08:20:00.783Z,11.67
2023-02-09T08:24:53.284Z,12.07
2023-02-09T08:29:46.541Z,11.47
2023-02-09T08:34:39.045Z,12.37
2023-02-09T08:39:30.793Z,12.30
2023-02-09T08:44:22.572Z,13.37
2023-02-09T08:49:14.310Z,12.37
2023-02-09T08:54:05.940Z,12.53
2023-02-09T08:58:58.016Z,12.53
2023-02-09T09:03:49.796Z,12.60
2023-02-09T09:08:41.690Z,12.73
2023-02-09T09:13:33.483Z,13.60
2023-02-09T09:18:26.108Z,12.23
2023-02-09T09:23:18.208Z,13.07
2023-02-09T09:28:10.344Z,12.27
2023-02-09T09:33:02.652Z,12.20
2023-02-09T09:37:57.307Z,12.70
2023-02-09T09:42:54.948Z,12.93
2023-02-09T09:47:47.812Z,12.70
2023-02-09T09:52:42.665Z,13.07
2023-02-09T09:57:41.915Z,13.27
2023-02-09T10:02:34.659Z,13.10
2023-02-09T10:07:32.142Z,13.17
2023-02-09T10:12:34.058Z,12.73
2023-02-09T10:17:25.691Z,13.97
2023-02-09T10:22:20.752Z,12.30
2023-02-09T10:27:26.456Z,12.70
2023-02-09T10:32:28.967Z,13.47
2023-02-09T10:37:26.895Z,12.77
2023-02-09T10:42:25.151Z,12.33
2023-02-09T10:47:19.836Z,12.27
2023-02-09T10:52:23.624Z,12.47
2023-02-09T10:57:22.606Z,12.97
2023-02-09T11:02:29.832Z,12.97
2023-02-09T11:07:26.623Z,13.13
2023-02-09T11:12:22.801Z,13.30
2023-02-09T11:17:26.767Z,12.17
2023-02-09T11:22:18.412Z,11.77
2023-02-09T11:27:28.184Z,11.57
2023-02-09T11:32:43.870Z,11.23
2023-02-09T11:37:39.576Z,12.43
2023-02-09T11:42:45.762Z,12.00
2023-02-09T11:47:48.028Z,12.47
2023-02-09T11:52:51.629Z,12.37
2023-02-09T11:57:50.678Z,11.73
2023-02-09T12:02:46.335Z,12.17
2023-02-09T12:07:44.506Z,10.97
2023-02-09T12:13:01.469Z,11.57
2023-02-09T12:17:57.717Z,11.80
2023-02-09T12:22:53.823Z,12.60
2023-02-09T12:28:23.524Z,11.67
2023-02-09T12:33:16.414Z,11.77
2023-02-09T12:38:18.478Z,11.10
2023-02-09T12:43:25.699Z,10.90
2023-02-09T12:48:19.205Z,10.97
2023-02-09T12:53:23.438Z,11.57
2023-02-09T12:58:40.109Z,11.40
2023-02-09T13:03:41.072Z,9.70
2023-02-09T13:08:37.864Z,10.77
2023-02-09T13:13:33.090Z,10.60
2023-02-09T13:18:40.995Z,9.73
2023-02-09T13:23:41.512Z,9.83
2023-02-09T13:28:33.290Z,10.40
2023-02-09T13:33:50.993Z,9.43
2023-02-09T13:38:43.240Z,9.70
2023-02-09T13:43:40.424Z,9.47
2023-02-09T13:48:35.668Z,8.83
2023-02-09T13:53:29.158Z,8.57
2023-02-09T13:58:24.898Z,9.13
2023-02-09T14:03:21.448Z,8.73
2023-02-09T14:08:15.576Z,8.97
2023-02-09T14:13:20.352Z,9.40
2023-02-09T14:18:47.525Z,9.23
2023-02-09T14:23:48.749Z,8.57
2023-02-09T14:28:43.306Z,9.57
2023-02-09T14:33:37.516Z,8.53
2023-02-09T14:38:42.957Z,8.60
2023-02-09T14:43:34.695Z,9.17
2023-02-09T14:48:28.612Z,8.77
2023-02-09T14:53:21.926Z,9.13
2023-02-09T14:58:24.998Z,8.93
2023-02-09T15:03:16.659Z,8.73
2023-02-09T15:08:15.994Z,9.07
2023-02-09T15:13:11.253Z,8.60
2023-02-09T15:18:03.320Z,8.53
2023-02-09T15:22:55.869Z,8.50
2023-02-09T15:27:52.734Z,8.77
2023-02-09T15:32:45.151Z,8.40
2023-02-09T15:37:39.461Z,7.97
2023-02-09T15:42:49.794Z,8.37
2023-02-09T15:47:52.774Z,9.03
2023-02-09T15:52:44.593Z,8.33
2023-02-09T15:57:36.618Z,8.00
2023-02-09T16:02:28.267Z,8.10
2023-02-09T16:07:26.102Z,8.30
2023-02-09T16:12:17.730Z,8.17
2023-02-09T16:17:09.452Z,7.90
2023-02-09T16:22:04.493Z,8.77
2023-02-09T16:26:58.887Z,8.57
2023-02-09T16:31:50.547Z,8.63
2023-02-09T16:36:43.340Z,8.37
2023-02-09T16:41:47.321Z,7.53
2023-02-09T16:46:39.084Z,8.47
2023-02-09T16:51:30.769Z,8.33
2023-02-09T16:56:24.851Z,8.00
2023-02-09T17:01:19.126Z,7.73
2023-02-09T17:06:20.157Z,7.30
2023-02-09T17:11:29.922Z,8.97
2023-02-09T17:16:24.438Z,8.27
2023-02-09T17:21:19.116Z,9.00
2023-02-09T17:26:11.893Z,8.20
2023-02-09T17:31:13.063Z,8.20
2023-02-09T17:41:21.189Z,8.90
2023-02-09T17:46:15.957Z,8.13
2023-02-09T17:51:19.546Z,8.97
2023-02-09T17:56:11.768Z,9.17
2023-02-09T18:01:32.620Z,9.10
2023-02-09T18:06:34.310Z,8.80
2023-02-09T18:11:45.506Z,8.57
2023-02-09T18:16:37.692Z,10.30
2023-02-09T18:21:29.408Z,10.27
2023-02-09T18:26:21.065Z,11.03
2023-02-09T18:31:16.387Z,10.03
2023-02-09T18:36:08.665Z,11.10
2023-02-09T18:41:00.326Z,10.50
2023-02-09T18:45:52.148Z,10.93
2023-02-09T18:50:44.170Z,11.80
2023-02-09T18:55:35.865Z,11.63
2023-02-09T19:00:28.054Z,11.10
2023-02-09T19:05:19.972Z,13.40
2023-02-09T19:10:14.510Z,15.73
2023-02-09T19:15:06.358Z,13.17
2023-02-09T19:19:59.170Z,13.17
2023-02-09T19:24:54.133Z,12.97
2023-02-09T19:29:46.487Z,12.60
2023-02-09T19:34:39.997Z,13.53
2023-02-09T19:39:34.897Z,13.03
2023-02-09T19:44:27.822Z,13.90
2023-02-09T19:49:19.572Z,14.10
2023-02-09T19:54:11.212Z,13.63
2023-02-09T19:59:04.120Z,14.33
2023-02-09T20:03:56.324Z,15.47
2023-02-09T20:08:48.106Z,14.73
2023-02-09T20:13:39.892Z,14.13
2023-02-09T20:18:31.466Z,16.10
2023-02-09T20:23:23.772Z,14.73
2023-02-09T20:28:15.595Z,14.47
2023-02-09T20:33:07.308Z,14.87
2023-02-09T20:37:59.035Z,15.43
2023-02-09T20:43:09.380Z,15.70
2023-02-09T20:48:01.342Z,14.80
2023-02-09T20:52:53.019Z,15.37
2023-02-09T20:57:44.660Z,17.20
2023-02-09T21:02:37.882Z,16.40
2023-02-09T21:07:29.697Z,18.17
2023-02-09T21:12:22.249Z,17.97
2023-02-09T21:17:14.417Z,18.13
2023-02-09T21:22:06.507Z,18.57
2023-02-09T21:27:00.620Z,19.17
2023-02-09T21:31:52.644Z,19.33
2023-02-09T21:36:44.495Z,18.63
2023-02-09T21:41:54.862Z,18.10
2023-02-09T21:46:48.733Z,18.73
2023-02-09T21:51:41.990Z,19.43
2023-02-09T21:56:33.695Z,20.87
2023-02-09T22:01:25.409Z,20.43
2023-02-09T22:06:17.120Z,19.07
2023-02-09T22:11:09.003Z,20.33
2023-02-09T22:16:06.177Z,20.23
2023-02-09T22:20:57.812Z,19.70
2023-02-09T22:25:49.439Z,19.80
2023-02-09T22:30:41.202Z,19.67
2023-02-09T22:35:32.901Z,21.37
2023-02-09T22:40:24.569Z,20.00
2023-02-09T22:45:16.321Z,20.77
2023-02-09T22:50:08.657Z,19.57
2023-02-09T22:55:00.441Z,19.37
2023-02-09T22:59:52.176Z,19.47
2023-02-09T23:04:43.823Z,20.77
2023-02-09T23:09:35.648Z,19.93
2023-02-09T23:14:27.858Z,19.87
2023-02-09T23:19:20.958Z,20.80
2023-02-09T23:24:14.291Z,20.57
2023-02-09T23:29:09.519Z,20.77
2023-02-09T23:34:01.148Z,21.10
2023-02-09T23:38:58.857Z,21.17
2023-02-09T23:43:52.309Z,20.40
2023-02-09T23:48:47.970Z,20.67
2023-02-09T23:53:39.982Z,21.47
2023-02-09T23:58:37.986Z,21.27
